Time;durP1;ratioP1;P1;durP2;ratioP2;P2;SDS_P1;SDS_P2;PMS_P1;PMS_P2;Temp;Humidity;BMP_temperature;BMP_pressure;BME280_temperature;BME280_humidity;BME280_pressure;Samples;Min_cycle;Max_cycle;Signal;HPM_P1;HPM_P2
2023/08/08 00:00:08;;;;;;;11.20;4.97;;;;;;;13.07;93.68;101400.63;5022418;28;20406;-67
2023/08/08 00:02:34;;;;;;;7.50;4.47;;;;;;;13.11;93.72;101415.28;5021038;28;20104;-66
2023/08/08 00:04:59;;;;;;;8.32;4.07;;;;;;;13.11;94.01;101413.44;5020101;28;20035;-67
2023/08/08 00:07:24;;;;;;;9.50;4.78;;;;;;;13.14;94.10;101409.59;5023782;28;20032;-66
2023/08/08 00:09:49;;;;;;;10.98;4.43;;;;;;;13.10;94.13;101401.13;5020480;28;20072;-66
2023/08/08 00:12:15;;;;;;;7.95;4.18;;;;;;;13.15;94.35;101408.59;5022268;28;20033;-67
2023/08/08 00:14:40;;;;;;;8.65;4.40;;;;;;;13.16;94.30;101419.09;5021350;28;20964;-67
2023/08/08 00:17:05;;;;;;;7.97;4.07;;;;;;;13.17;94.08;101407.44;5024127;28;20036;-67
2023/08/08 00:19:31;;;;;;;8.50;4.50;;;;;;;13.22;94.06;101409.59;5017781;28;20050;-67
2023/08/08 00:21:56;;;;;;;9.85;4.18;;;;;;;13.20;93.83;101393.75;5020618;28;20032;-67
2023/08/08 00:24:21;;;;;;;13.93;4.63;;;;;;;13.29;94.01;101405.22;5022673;28;20125;-66
2023/08/08 00:26:46;;;;;;;7.10;4.43;;;;;;;13.30;94.03;101405.06;5017243;28;20037;-67
2023/08/08 00:29:12;;;;;;;12.77;4.65;;;;;;;13.31;93.57;101401.41;5021168;28;20053;-66
2023/08/08 00:31:37;;;;;;;9.23;4.15;;;;;;;13.34;93.54;101402.88;5024357;28;20094;-67
2023/08/08 00:34:02;;;;;;;6.93;4.20;;;;;;;13.37;93.50;101401.69;5026027;28;20113;-67
2023/08/08 00:36:27;;;;;;;8.98;4.25;;;;;;;13.37;93.34;101396.34;5023688;28;20033;-67
2023/08/08 00:38:53;;;;;;;7.20;3.92;;;;;;;13.40;93.12;101396.00;5024633;28;20037;-66
2023/08/08 00:41:18;;;;;;;9.57;4.00;;;;;;;13.39;93.14;101399.69;5026176;28;20017;-67
2023/08/08 00:43:43;;;;;;;10.10;4.25;;;;;;;13.40;93.29;101404.84;5019069;28;20064;-66
2023/08/08 00:46:09;;;;;;;8.73;4.50;;;;;;;13.38;93.40;101398.03;5023601;28;20906;-67
2023/08/08 00:48:34;;;;;;;11.63;4.78;;;;;;;13.33;93.62;101391.38;5024565;28;20025;-67
2023/08/08 00:51:00;;;;;;;7.15;4.50;;;;;;;13.41;93.48;101389.66;5019521;28;20037;-67
2023/08/08 00:53:28;;;;;;;12.65;4.70;;;;;;;13.42;93.54;101386.00;5019916;28;20116;-67
2023/08/08 00:55:54;;;;;;;10.00;4.68;;;;;;;13.42;93.35;101388.66;5016741;28;20446;-67
2023/08/08 00:58:19;;;;;;;8.20;4.25;;;;;;;13.45;93.25;101396.31;5015858;28;20030;-66
2023/08/08 01:00:44;;;;;;;9.73;4.22;;;;;;;13.46;93.30;101389.97;5025120;28;20040;-67
2023/08/08 01:03:10;;;;;;;12.50;4.53;;;;;;;13.47;93.42;101396.97;5014835;28;20072;-67
2023/08/08 01:05:42;;;;;;;10.45;4.40;;;;;;;13.46;93.56;101393.47;5019221;28;20052;-67
2023/08/08 01:08:07;;;;;;;10.05;4.60;;;;;;;13.47;93.37;101408.47;5018682;28;20025;-66
2023/08/08 01:10:41;;;;;;;8.65;4.72;;;;;;;13.42;93.62;101394.81;5017362;28;20053;-67
2023/08/08 01:13:22;;;;;;;7.55;4.25;;;;;;;13.41;94.14;101387.00;5020820;28;20117;-66
2023/08/08 01:15:49;;;;;;;11.65;4.90;;;;;;;13.43;94.51;101384.97;5022285;28;20029;-66
2023/08/08 01:18:15;;;;;;;9.80;4.97;;;;;;;13.42;94.56;101378.81;5015477;28;20503;-67
2023/08/08 01:20:43;;;;;;;9.73;5.07;;;;;;;13.41;94.96;101387.81;5020982;28;20047;-66
2023/08/08 01:23:42;;;;;;;11.00;5.05;;;;;;;13.40;96.12;101398.69;5021371;28;20064;-67
2023/08/08 01:26:08;;;;;;;12.50;4.95;;;;;;;13.35;96.54;101385.03;5011612;28;20044;-66
2023/08/08 01:28:33;;;;;;;8.65;4.97;;;;;;;13.29;97.21;101376.69;5020084;28;20034;-66
2023/08/08 01:30:59;;;;;;;12.63;5.50;;;;;;;13.27;97.34;101365.38;5020411;28;20058;-67
2023/08/08 01:33:24;;;;;;;14.55;5.40;;;;;;;13.27;98.10;101384.06;5017505;28;20028;-67
2023/08/08 01:35:55;;;;;;;11.63;5.53;;;;;;;13.25;98.44;101377.22;5026725;28;20026;-67
2023/08/08 01:38:25;;;;;;;8.95;4.75;;;;;;;13.23;98.04;101379.25;5019689;28;20021;-67
2023/08/08 01:40:51;;;;;;;10.07;5.60;;;;;;;13.15;98.51;101372.09;5019181;28;20502;-66
2023/08/08 01:43:18;;;;;;;9.88;5.38;;;;;;;13.20;98.62;101382.25;5019038;28;20053;-67
2023/08/08 01:45:44;;;;;;;11.23;5.78;;;;;;;13.18;99.11;101376.28;5024065;28;20035;-67
2023/08/08 01:48:11;;;;;;;11.95;5.50;;;;;;;13.18;99.09;101382.44;5023650;28;20026;-67
2023/08/08 01:50:37;;;;;;;15.32;5.90;;;;;;;13.17;99.18;101378.13;5018510;28;20543;-67
2023/08/08 01:53:03;;;;;;;12.63;5.47;;;;;;;13.17;99.31;101378.13;5023965;28;20096;-67
2023/08/08 01:55:30;;;;;;;12.52;5.65;;;;;;;13.14;99.63;101365.09;5020370;28;20025;-67
2023/08/08 01:57:55;;;;;;;11.98;5.80;;;;;;;13.17;99.55;101374.59;5023065;28;20095;-66
2023/08/08 02:00:21;;;;;;;11.50;5.55;;;;;;;13.15;99.93;101364.09;5024182;28;20022;-67
2023/08/08 02:02:46;;;;;;;9.40;5.68;;;;;;;13.09;99.81;101362.13;5023547;28;20033;-67
2023/08/08 02:05:11;;;;;;;10.48;5.63;;;;;;;13.08;99.94;101352.47;5026108;28;20025;-66
2023/08/08 02:07:36;;;;;;;11.32;5.50;;;;;;;13.07;100.00;101358.81;5021347;28;20029;-67
2023/08/08 02:10:02;;;;;;;9.70;5.30;;;;;;;13.06;100.00;101369.66;5020556;28;20030;-67
2023/08/08 02:12:29;;;;;;;11.73;5.28;;;;;;;13.00;100.00;101365.81;5021152;28;20407;-67
2023/08/08 02:14:55;;;;;;;10.57;5.60;;;;;;;12.95;100.00;101363.69;5024146;28;20036;-66
2023/08/08 02:17:21;;;;;;;9.55;5.40;;;;;;;12.94;100.00;101369.19;5028724;28;20536;-66
2023/08/08 02:19:46;;;;;;;13.35;6.43;;;;;;;12.90;100.00;101366.03;5019453;28;20491;-67
2023/08/08 02:22:11;;;;;;;10.70;5.38;;;;;;;12.89;100.00;101356.38;5018977;28;20073;-67
2023/08/08 02:24:37;;;;;;;11.25;5.78;;;;;;;12.88;100.00;101351.22;5020336;28;20026;-67
2023/08/08 02:27:02;;;;;;;11.90;5.93;;;;;;;12.89;100.00;101355.53;5023332;28;20041;-66
2023/08/08 02:29:27;;;;;;;10.45;6.28;;;;;;;12.88;100.00;101348.56;5022348;28;20025;-66
2023/08/08 02:31:52;;;;;;;13.20;6.40;;;;;;;12.86;100.00;101343.41;5020971;28;20459;-66
2023/08/08 02:34:18;;;;;;;12.07;6.15;;;;;;;12.91;100.00;101349.03;5025428;28;20033;-66
2023/08/08 02:36:43;;;;;;;12.50;6.35;;;;;;;12.90;100.00;101347.38;5024741;28;20029;-67
2023/08/08 02:39:09;;;;;;;13.48;6.85;;;;;;;12.93;100.00;101351.53;5021298;28;20104;-67
2023/08/08 02:41:34;;;;;;;18.73;6.60;;;;;;;12.94;100.00;101350.53;5023765;28;20029;-67
2023/08/08 02:43:59;;;;;;;13.13;6.53;;;;;;;12.93;100.00;101343.53;5022134;28;20601;-66
2023/08/08 02:46:25;;;;;;;15.38;6.50;;;;;;;12.85;100.00;101327.56;5018543;28;20046;-67
2023/08/08 02:48:50;;;;;;;12.60;6.63;;;;;;;12.94;100.00;101334.53;5021486;28;20021;-67
2023/08/08 02:51:15;;;;;;;11.20;6.60;;;;;;;12.89;100.00;101318.22;5023686;28;20136;-67
2023/08/08 02:53:41;;;;;;;16.67;7.05;;;;;;;12.95;100.00;101325.53;5018387;28;20084;-66
2023/08/08 02:56:06;;;;;;;15.60;7.40;;;;;;;12.96;100.00;101319.19;5014792;28;20060;-66
2023/08/08 02:58:31;;;;;;;19.15;7.78;;;;;;;12.95;100.00;101325.53;5018262;28;20484;-66
2023/08/08 03:00:56;;;;;;;24.08;7.30;;;;;;;12.96;100.00;101324.50;5020970;28;20049;-66
2023/08/08 03:03:22;;;;;;;16.63;7.75;;;;;;;12.93;100.00;101325.69;5014305;28;20030;-67
2023/08/08 03:05:47;;;;;;;18.42;7.03;;;;;;;12.94;100.00;101327.34;5023747;28;20091;-66
2023/08/08 03:08:12;;;;;;;13.70;7.43;;;;;;;12.91;100.00;101341.03;5021218;28;20029;-66
2023/08/08 03:10:38;;;;;;;16.17;7.63;;;;;;;12.89;100.00;101337.72;5021478;28;20419;-67
2023/08/08 03:13:03;;;;;;;18.55;8.48;;;;;;;12.87;100.00;101330.91;5022727;28;20040;-66
2023/08/08 03:15:29;;;;;;;20.25;7.78;;;;;;;12.84;100.00;101333.91;5024543;28;20036;-67
2023/08/08 03:17:55;;;;;;;14.48;7.40;;;;;;;12.76;100.00;101325.97;5015213;28;20044;-67
2023/08/08 03:20:20;;;;;;;18.42;7.88;;;;;;;12.79;100.00;101328.28;5020821;28;20032;-67
2023/08/08 03:22:46;;;;;;;18.70;7.97;;;;;;;12.76;100.00;101320.63;5022126;28;20041;-67
2023/08/08 03:25:11;;;;;;;14.95;7.72;;;;;;;12.75;100.00;101322.47;5025109;28;20033;-66
2023/08/08 03:27:36;;;;;;;14.18;7.63;;;;;;;12.73;100.00;101326.31;5027520;28;20068;-67
2023/08/08 03:30:02;;;;;;;17.40;8.02;;;;;;;12.68;100.00;101319.63;5019437;28;20139;-66
2023/08/08 03:32:28;;;;;;;16.90;8.43;;;;;;;12.67;100.00;101325.13;5023560;28;20030;-67
2023/08/08 03:34:53;;;;;;;18.65;8.65;;;;;;;12.65;100.00;101321.81;5014793;28;20124;-67
2023/08/08 03:37:18;;;;;;;19.48;8.35;;;;;;;12.63;100.00;101331.81;5014532;28;20149;-67
2023/08/08 03:39:44;;;;;;;19.10;8.88;;;;;;;12.61;100.00;101325.84;5018730;28;20037;-67
2023/08/08 03:42:09;;;;;;;21.35;9.10;;;;;;;12.60;100.00;101324.16;5023613;28;20044;-66
2023/08/08 03:44:34;;;;;;;19.02;8.80;;;;;;;12.61;100.00;101324.00;5019201;28;20122;-67
2023/08/08 03:47:00;;;;;;;17.48;9.10;;;;;;;12.62;100.00;101317.66;5017882;28;20034;-67
2023/08/08 03:49:25;;;;;;;20.45;9.48;;;;;;;12.62;100.00;101317.66;5021416;28;20029;-67
2023/08/08 03:51:50;;;;;;;19.45;9.00;;;;;;;12.59;100.00;101315.34;5019217;28;20071;-67
2023/08/08 03:54:16;;;;;;;18.25;9.57;;;;;;;12.59;100.00;101318.00;5023998;28;20041;-66
2023/08/08 03:56:42;;;;;;;19.95;9.63;;;;;;;12.60;100.00;101313.50;5018092;28;20033;-66
2023/08/08 03:59:07;;;;;;;23.70;10.10;;;;;;;12.58;100.00;101312.84;5015701;28;20029;-66
2023/08/08 04:01:32;;;;;;;23.67;9.77;;;;;;;12.57;100.00;101314.69;5021387;28;20415;-67
2023/08/08 04:03:58;;;;;;;21.73;9.32;;;;;;;12.57;100.00;101316.53;5018776;28;20079;-66
2023/08/08 04:06:23;;;;;;;23.55;10.63;;;;;;;12.55;100.00;101311.38;5020726;28;20502;-66
2023/08/08 04:08:49;;;;;;;21.65;10.68;;;;;;;12.51;100.00;101307.41;5022504;28;20129;-66
2023/08/08 04:11:14;;;;;;;22.10;10.70;;;;;;;12.53;100.00;101302.72;5014361;28;20448;-66
2023/08/08 04:13:39;;;;;;;27.17;10.75;;;;;;;12.52;100.00;101303.72;5020415;28;20034;-66
2023/08/08 04:16:05;;;;;;;26.50;11.20;;;;;;;12.48;100.00;101294.41;5015948;28;20038;-66
2023/08/08 04:18:30;;;;;;;31.15;11.40;;;;;;;12.36;100.00;101282.44;5025084;28;20093;-66
2023/08/08 04:20:55;;;;;;;24.13;11.80;;;;;;;12.49;100.00;101304.06;5014744;28;20651;-66
2023/08/08 04:23:22;;;;;;;24.27;11.18;;;;;;;12.45;100.00;101294.75;5013093;28;20026;-66
2023/08/08 04:25:47;;;;;;;30.10;11.55;;;;;;;12.49;100.00;101306.72;5017344;28;20037;-67
2023/08/08 04:28:13;;;;;;;28.13;12.02;;;;;;;12.49;100.00;101305.91;5018706;28;20030;-67
2023/08/08 04:30:38;;;;;;;31.38;12.30;;;;;;;12.48;100.00;101301.59;5019534;28;20050;-67
2023/08/08 04:33:04;;;;;;;28.42;11.82;;;;;;;12.46;100.00;101292.94;5020571;28;20109;-67
2023/08/08 04:35:29;;;;;;;28.50;12.32;;;;;;;12.44;100.00;101298.44;5016199;28;20025;-66
2023/08/08 04:37:55;;;;;;;26.73;11.88;;;;;;;12.48;100.00;101298.91;5015906;28;20038;-66
2023/08/08 04:40:20;;;;;;;26.83;12.60;;;;;;;12.46;100.00;101307.09;5016859;28;20029;-67
2023/08/08 04:42:45;;;;;;;23.23;11.95;;;;;;;12.44;100.00;101309.09;5012216;28;20605;-67
2023/08/08 04:45:10;;;;;;;29.50;12.32;;;;;;;12.46;100.00;101311.59;5013050;28;20064;-65
2023/08/08 04:47:36;;;;;;;26.80;12.55;;;;;;;12.45;100.00;101308.09;5022011;28;20295;-66
2023/08/08 04:50:01;;;;;;;31.67;13.00;;;;;;;12.46;100.00;101312.41;5013906;28;20037;-67
2023/08/08 04:52:26;;;;;;;28.70;12.32;;;;;;;12.48;100.00;101310.41;5022753;28;20111;-66
2023/08/08 04:54:51;;;;;;;23.73;12.43;;;;;;;12.44;100.00;101303.75;5012844;28;20022;-66
2023/08/08 04:57:17;;;;;;;31.55;12.68;;;;;;;12.52;100.00;101306.38;5017548;28;20048;-67
2023/08/08 04:59:42;;;;;;;24.10;12.00;;;;;;;12.57;100.00;101308.53;5017378;28;20037;-67
2023/08/08 05:02:07;;;;;;;27.10;12.07;;;;;;;12.59;100.00;101304.69;5022050;28;20033;-66
2023/08/08 05:04:33;;;;;;;22.85;11.80;;;;;;;12.59;100.00;101302.03;5015409;28;20026;-66
2023/08/08 05:06:58;;;;;;;23.48;11.43;;;;;;;12.61;100.00;101308.00;5020571;28;20609;-66
2023/08/08 05:09:26;;;;;;;33.33;12.48;;;;;;;12.61;100.00;101300.03;5018833;28;20034;-66
2023/08/08 05:11:52;;;;;;;29.92;12.60;;;;;;;12.63;100.00;101303.34;5023130;28;20029;-67
2023/08/08 05:14:17;;;;;;;25.02;11.75;;;;;;;12.63;100.00;101307.84;5015131;28;20057;-67
2023/08/08 05:16:43;;;;;;;29.55;12.00;;;;;;;12.66;100.00;101305.66;5019878;28;20064;-66
2023/08/08 05:19:08;;;;;;;25.42;11.60;;;;;;;12.65;100.00;101300.50;5018557;28;20033;-66
2023/08/08 05:21:34;;;;;;;24.95;12.32;;;;;;;12.67;100.00;101299.31;5014052;28;20198;-66
2023/08/08 05:23:59;;;;;;;31.42;12.38;;;;;;;12.68;100.00;101303.66;5019113;28;20036;-67
2023/08/08 05:26:25;;;;;;;28.05;12.15;;;;;;;12.73;100.00;101308.47;5019916;28;20026;-66
2023/08/08 05:28:50;;;;;;;25.17;11.85;;;;;;;12.78;100.00;101314.13;5022716;28;20026;-66
2023/08/08 05:31:15;;;;;;;37.55;12.85;;;;;;;12.77;100.00;101303.63;5018069;28;20030;-66
2023/08/08 05:33:41;;;;;;;25.08;12.20;;;;;;;12.86;100.00;101313.25;5020483;28;20087;-66
2023/08/08 05:36:06;;;;;;;25.02;11.45;;;;;;;12.83;100.00;101308.25;5021761;28;20026;-66
2023/08/08 05:38:32;;;;;;;27.30;11.02;;;;;;;12.90;100.00;101309.22;5019124;28;20124;-67
2023/08/08 05:40:57;;;;;;;24.40;11.35;;;;;;;12.87;100.00;101301.56;5021171;28;20025;-66
2023/08/08 05:43:22;;;;;;;22.17;10.77;;;;;;;12.95;100.00;101307.69;5015640;28;20043;-66
2023/08/08 05:45:48;;;;;;;23.67;10.45;;;;;;;12.98;100.00;101311.84;5014666;28;20037;-67
2023/08/08 05:48:13;;;;;;;23.02;11.27;;;;;;;13.01;100.00;101317.69;5018132;28;20029;-67
2023/08/08 05:50:39;;;;;;;21.17;10.40;;;;;;;13.03;100.00;101309.50;5017479;28;20494;-67
2023/08/08 05:53:05;;;;;;;22.40;10.07;;;;;;;13.06;100.00;101303.81;5023252;28;20041;-67
2023/08/08 05:55:30;;;;;;;23.05;10.57;;;;;;;13.13;100.00;101310.09;5017023;28;20075;-66
2023/08/08 05:57:55;;;;;;;26.67;10.93;;;;;;;13.18;100.00;101310.44;5021307;28;20026;-66
2023/08/08 06:00:20;;;;;;;22.67;10.68;;;;;;;13.25;100.00;101316.72;5015353;28;20037;-67
2023/08/08 06:02:46;;;;;;;16.75;9.10;;;;;;;13.25;100.00;101319.38;5020438;28;20033;-67
2023/08/08 06:05:12;;;;;;;22.20;10.40;;;;;;;13.27;100.00;101312.03;5019676;28;20042;-67
2023/08/08 06:07:37;;;;;;;23.85;10.50;;;;;;;13.26;100.00;101299.69;5017133;28;20026;-67
2023/08/08 06:10:02;;;;;;;24.60;9.80;;;;;;;13.37;100.00;101313.66;5018987;28;20115;-67
2023/08/08 06:12:28;;;;;;;22.85;10.10;;;;;;;13.39;100.00;101309.81;5013888;28;20026;-67
2023/08/08 06:14:53;;;;;;;20.77;9.90;;;;;;;13.43;100.00;101312.94;5015022;28;20072;-67
2023/08/08 06:17:18;;;;;;;19.13;8.80;;;;;;;13.45;100.00;101318.94;5020584;28;20038;-67
2023/08/08 06:19:44;;;;;;;20.88;8.75;;;;;;;13.56;100.00;101323.84;5020352;28;20030;-67
2023/08/08 06:22:09;;;;;;;16.63;9.23;;;;;;;13.62;100.00;101324.00;5024723;28;20061;-67
2023/08/08 06:24:34;;;;;;;16.48;8.15;;;;;;;13.68;100.00;101329.63;5021125;28;20044;-67
2023/08/08 06:26:59;;;;;;;23.45;9.43;;;;;;;13.70;100.00;101338.28;5020406;28;20832;-67
2023/08/08 06:29:25;;;;;;;18.83;9.30;;;;;;;13.73;100.00;101320.06;5023906;28;20387;-67
2023/08/08 06:31:50;;;;;;;17.65;8.55;;;;;;;13.84;100.00;101324.13;5023579;28;20032;-68
2023/08/08 06:34:15;;;;;;;19.02;8.07;;;;;;;13.92;100.00;101332.91;5018628;28;20063;-67
2023/08/08 06:36:41;;;;;;;15.90;7.75;;;;;;;13.95;100.00;101318.38;5030445;28;20079;-66
2023/08/08 06:39:06;;;;;;;17.10;7.55;;;;;;;14.00;100.00;101328.50;5034960;28;20593;-67
2023/08/08 06:41:32;;;;;;;23.10;7.70;;;;;;;14.06;100.00;101333.13;5040429;28;20063;-67
2023/08/08 06:43:58;;;;;;;17.40;7.43;;;;;;;14.12;100.00;101335.88;5032118;28;20064;-68
2023/08/08 06:46:24;;;;;;;16.08;6.68;;;;;;;14.15;100.00;101340.03;5039795;28;20110;-67
2023/08/08 06:48:50;;;;;;;18.20;7.28;;;;;;;14.21;100.00;101332.16;5030028;28;20681;-67
2023/08/08 06:51:15;;;;;;;18.77;7.55;;;;;;;14.34;100.00;101342.19;5032546;28;20032;-67
2023/08/08 06:53:41;;;;;;;15.75;6.65;;;;;;;14.43;100.00;101345.63;5038232;28;20025;-67
2023/08/08 06:56:06;;;;;;;15.43;6.50;;;;;;;14.47;100.00;101347.78;5028978;28;20542;-67
2023/08/08 06:58:31;;;;;;;15.68;7.00;;;;;;;14.54;100.00;101348.69;5021069;28;20044;-67
2023/08/08 07:00:56;;;;;;;14.95;6.70;;;;;;;14.56;100.00;101341.31;5023357;28;20041;-67
2023/08/08 07:03:22;;;;;;;12.65;5.82;;;;;;;14.57;100.00;101348.31;5020900;28;20022;-68
2023/08/08 07:05:51;;;;;;;14.68;6.35;;;;;;;14.60;100.00;101344.44;5024020;28;20033;-67
2023/08/08 07:08:17;;;;;;;14.00;6.15;;;;;;;14.62;100.00;101334.41;5025885;28;20056;-67
2023/08/08 07:10:42;;;;;;;12.48;6.63;;;;;;;14.67;100.00;101333.84;5023239;28;20065;-67
2023/08/08 07:13:08;;;;;;;14.20;6.13;;;;;;;14.73;100.00;101344.63;5020372;28;20030;-67
2023/08/08 07:15:33;;;;;;;13.13;6.53;;;;;;;14.76;100.00;101341.59;5018798;28;20427;-67
2023/08/08 07:17:59;;;;;;;16.77;5.72;;;;;;;14.89;100.00;101351.63;5027850;28;20029;-68
2023/08/08 07:20:25;;;;;;;13.73;5.47;;;;;;;14.98;100.00;101347.81;5031722;28;20112;-68
2023/08/08 07:22:50;;;;;;;12.23;5.25;;;;;;;15.07;99.64;101346.72;5023546;28;20883;-67
2023/08/08 07:25:15;;;;;;;12.38;5.47;;;;;;;15.13;99.78;101355.84;5020782;28;20037;-68
2023/08/08 07:27:40;;;;;;;10.52;4.70;;;;;;;15.13;97.89;101353.16;5026434;28;20037;-67
2023/08/08 07:30:06;;;;;;;9.48;4.10;;;;;;;15.23;97.65;101344.81;5031381;28;20033;-67
2023/08/08 07:32:32;;;;;;;11.70;4.50;;;;;;;15.29;97.48;101338.72;5028915;28;20029;-67
2023/08/08 07:34:58;;;;;;;10.15;3.65;;;;;;;15.39;95.57;101349.94;5042603;28;20100;-67
2023/08/08 07:37:23;;;;;;;8.65;3.50;;;;;;;15.48;95.27;101343.44;5015495;28;20113;-67
2023/08/08 07:39:53;;;;;;;7.93;3.22;;;;;;;15.63;94.06;101344.28;5032354;28;20026;-68
2023/08/08 07:42:19;;;;;;;7.47;3.05;;;;;;;15.72;94.06;101331.56;5027501;28;20422;-68
2023/08/08 07:44:44;;;;;;;11.75;3.63;;;;;;;15.81;92.58;101338.44;5023095;28;20515;-68
2023/08/08 07:47:09;;;;;;;8.82;3.38;;;;;;;15.83;91.63;101339.06;5023945;28;20711;-67
2023/08/08 07:49:34;;;;;;;11.95;3.55;;;;;;;15.84;91.64;101335.38;5038037;28;20086;-68
2023/08/08 07:51:59;;;;;;;11.00;2.90;;;;;;;15.82;90.31;101333.91;5027150;28;20044;-67
2023/08/08 07:54:25;;;;;;;6.78;3.33;;;;;;;15.95;90.42;101326.00;5033385;28;20391;-67
2023/08/08 07:56:50;;;;;;;11.30;3.60;;;;;;;16.02;91.08;101325.03;5042344;28;20091;-67
2023/08/08 07:59:16;;;;;;;10.30;2.50;;;;;;;16.07;90.03;101335.97;5032051;28;20041;-68
2023/08/08 08:01:41;;;;;;;6.78;2.60;;;;;;;16.09;88.86;101338.47;5020644;28;20014;-68
2023/08/08 08:04:07;;;;;;;7.57;2.60;;;;;;;16.09;88.06;101327.75;5044731;28;20371;-67
2023/08/08 08:06:32;;;;;;;6.40;2.00;;;;;;;16.11;86.89;101339.09;5044487;28;20386;-67
2023/08/08 08:08:57;;;;;;;8.20;2.42;;;;;;;16.10;85.81;101343.63;5031642;28;20025;-67
2023/08/08 08:11:22;;;;;;;6.32;2.17;;;;;;;16.15;86.87;101329.66;5029792;28;21911;-67
2023/08/08 08:13:48;;;;;;;5.38;1.80;;;;;;;16.14;84.52;101330.66;5023930;28;20032;-67
2023/08/08 08:16:13;;;;;;;6.55;2.10;;;;;;;16.16;84.66;101333.16;5027103;28;20036;-67
2023/08/08 08:18:39;;;;;;;8.45;2.22;;;;;;;16.20;84.70;101327.22;5018100;28;20087;-67
2023/08/08 08:21:04;;;;;;;7.65;2.20;;;;;;;16.29;84.50;101328.72;5032239;28;20032;-67
2023/08/08 08:23:31;;;;;;;8.48;2.58;;;;;;;16.38;83.95;101343.63;5032452;28;20075;-67
2023/08/08 08:25:56;;;;;;;6.28;1.90;;;;;;;16.37;82.65;101333.94;5026005;28;20021;-67
2023/08/08 08:28:22;;;;;;;5.28;2.00;;;;;;;16.33;81.96;101338.03;5028511;28;20028;-67
2023/08/08 08:30:47;;;;;;;4.80;2.13;;;;;;;16.33;82.06;101324.63;5032109;28;20527;-67
2023/08/08 08:33:12;;;;;;;8.82;1.92;;;;;;;16.40;81.43;101330.03;5030412;28;20510;-67
2023/08/08 08:35:38;;;;;;;5.78;1.92;;;;;;;16.61;81.30;101335.31;5018263;28;20025;-67
2023/08/08 08:38:03;;;;;;;8.93;1.65;;;;;;;16.58;80.25;101319.63;5026060;28;20556;-66
2023/08/08 08:40:34;;;;;;;7.78;1.80;;;;;;;16.74;80.45;101334.56;5022225;28;20480;-67
2023/08/08 08:43:00;;;;;;;9.80;2.13;;;;;;;16.86;79.63;101330.31;5016174;28;20116;-67
2023/08/08 08:45:28;;;;;;;6.05;2.00;;;;;;;16.95;79.66;101336.31;5020135;28;20121;-67
2023/08/08 08:47:55;;;;;;;6.72;2.00;;;;;;;17.01;79.53;101328.28;5045560;28;20387;-67
2023/08/08 08:50:21;;;;;;;4.93;1.77;;;;;;;17.02;78.64;101335.31;5035405;28;20104;-67
2023/08/08 08:52:47;;;;;;;4.88;1.55;;;;;;;17.02;77.78;101329.94;5042666;28;20029;-67
2023/08/08 08:55:12;;;;;;;2.67;1.27;;;;;;;17.07;77.39;101329.38;5040701;28;20025;-67
2023/08/08 08:57:38;;;;;;;4.18;1.70;;;;;;;17.12;76.77;101331.44;5037045;28;20036;-67
2023/08/08 09:00:05;;;;;;;3.58;1.80;;;;;;;17.11;76.41;101335.16;5028209;28;20057;-67
2023/08/08 09:02:31;;;;;;;4.95;2.00;;;;;;;17.15;77.39;101349.84;5032307;28;20394;-67
2023/08/08 09:04:58;;;;;;;3.88;1.85;;;;;;;17.15;77.19;101345.28;5030408;28;20501;-66
2023/08/08 09:07:26;;;;;;;5.90;1.92;;;;;;;17.19;76.94;101340.34;5038255;28;20044;-67
2023/08/08 09:09:51;;;;;;;8.10;2.08;;;;;;;17.25;77.03;101335.00;5032504;28;20438;-67
2023/08/08 09:12:18;;;;;;;8.18;2.30;;;;;;;17.25;77.64;101342.22;5036962;28;20518;-66
2023/08/08 09:14:43;;;;;;;3.25;1.73;;;;;;;17.09;76.39;101350.63;5043651;28;20393;-66
2023/08/08 09:17:13;;;;;;;8.15;1.85;;;;;;;16.98;76.55;101342.13;5033194;28;20408;-67
2023/08/08 09:19:39;;;;;;;4.70;2.30;;;;;;;16.83;76.31;101348.66;5033705;28;20030;-67
2023/08/08 09:22:04;;;;;;;4.43;2.03;;;;;;;16.68;77.24;101348.78;5036989;28;20043;-67
2023/08/08 09:24:29;;;;;;;5.47;1.85;;;;;;;16.53;77.35;101356.09;5041695;28;20104;-67
2023/08/08 09:26:55;;;;;;;5.70;1.80;;;;;;;16.39;77.88;101352.50;5036803;28;20040;-67
2023/08/08 09:29:20;;;;;;;5.45;1.92;;;;;;;16.28;78.47;101353.88;5041090;28;20024;-66
2023/08/08 09:31:47;;;;;;;5.90;2.05;;;;;;;16.26;78.38;101350.56;5032753;28;20083;-66
2023/08/08 09:34:12;;;;;;;6.85;1.92;;;;;;;16.27;78.89;101357.59;5038658;28;20029;-67
2023/08/08 09:36:38;;;;;;;6.60;2.10;;;;;;;16.28;79.12;101355.72;5031064;28;20040;-67
2023/08/08 09:39:04;;;;;;;8.88;2.35;;;;;;;16.26;79.47;101347.88;5040556;28;20478;-67
2023/08/08 09:41:30;;;;;;;5.40;2.00;;;;;;;16.24;79.33;101357.97;5030178;28;20020;-66
2023/08/08 09:43:55;;;;;;;5.07;2.10;;;;;;;16.27;79.81;101348.72;5039581;28;20777;-66
2023/08/08 09:46:22;;;;;;;5.65;1.92;;;;;;;16.37;80.28;101347.34;5023551;28;20110;-66
2023/08/08 09:48:48;;;;;;;4.95;1.90;;;;;;;16.57;79.39;101360.03;5040012;28;20025;-65
2023/08/08 09:51:14;;;;;;;4.90;2.00;;;;;;;16.78;80.12;101349.28;5028682;28;20033;-67
2023/08/08 09:53:41;;;;;;;5.07;1.80;;;;;;;16.93;78.61;101355.31;5030345;28;20360;-66
2023/08/08 09:56:07;;;;;;;4.00;1.80;;;;;;;17.02;78.69;101338.00;5047315;28;20059;-67
2023/08/08 09:58:33;;;;;;;8.18;1.95;;;;;;;17.18;78.18;101346.75;5028894;28;20518;-67
2023/08/08 10:00:59;;;;;;;4.03;1.83;;;;;;;17.30;77.70;101350.47;5037413;28;20009;-66
2023/08/08 10:03:26;;;;;;;4.22;1.90;;;;;;;17.44;76.97;101346.81;5044451;28;20067;-68
2023/08/08 10:05:51;;;;;;;4.20;1.80;;;;;;;17.43;75.17;101355.91;5031993;28;20090;-67
2023/08/08 10:08:17;;;;;;;5.72;2.05;;;;;;;17.50;75.91;101345.16;5042475;28;20084;-68
2023/08/08 10:10:45;;;;;;;5.13;1.95;;;;;;;17.56;75.65;101357.78;5032916;28;20021;-68
2023/08/08 10:13:20;;;;;;;6.25;2.00;;;;;;;17.58;75.02;101345.78;5039932;28;20551;-67
2023/08/08 10:15:45;;;;;;;5.70;1.90;;;;;;;17.54;73.69;101347.25;5044199;28;20021;-68
2023/08/08 10:18:13;;;;;;;5.25;1.75;;;;;;;17.46;73.56;101350.13;5036900;28;20028;-67
2023/08/08 10:20:42;;;;;;;;;;;;;;;17.49;73.32;101365.00;5035527;28;20042;-67
2023/08/08 10:23:07;;;;;;;5.18;1.63;;;;;;;17.50;73.85;101356.75;5049242;28;19916;-67
2023/08/08 10:25:33;;;;;;;4.95;1.65;;;;;;;17.80;74.65;101354.53;5040357;28;20017;-67
2023/08/08 10:28:13;;;;;;;3.35;1.50;;;;;;;17.80;71.96;101362.59;5046502;28;20017;-67
2023/08/08 10:30:46;;;;;;;5.20;2.00;;;;;;;17.62;71.11;101355.09;5025394;28;20030;-68
2023/08/08 10:33:26;;;;;;;4.95;1.60;;;;;;;17.53;70.85;101368.94;5024132;28;20018;-67
2023/08/08 10:35:58;;;;;;;3.17;1.45;;;;;;;17.45;71.51;101366.44;5033409;28;20084;-67
2023/08/08 10:38:37;;;;;;;5.10;1.75;;;;;;;17.29;71.46;101364.94;5043252;28;20019;-67
2023/08/08 10:41:03;;;;;;;4.68;1.55;;;;;;;17.38;72.32;101353.00;5022132;28;20029;-67
2023/08/08 10:43:30;;;;;;;5.95;1.85;;;;;;;17.62;73.01;101365.84;5036545;28;20392;-67
2023/08/08 10:46:01;;;;;;;6.18;1.92;;;;;;;17.83;73.14;101361.38;5033863;28;20512;-68
2023/08/08 10:48:27;;;;;;;4.90;1.90;;;;;;;17.92;71.67;101354.75;5037453;28;20495;-67
2023/08/08 10:50:58;;;;;;;4.82;1.55;;;;;;;17.94;72.29;101352.72;5042899;28;20052;-67
2023/08/08 10:53:28;;;;;;;5.30;1.83;;;;;;;17.91;71.86;101340.47;5034390;28;20501;-67
2023/08/08 10:56:01;;;;;;;6.03;1.73;;;;;;;17.93;72.05;101346.50;5045797;28;20111;-67
2023/08/08 10:58:41;;;;;;;6.47;1.70;;;;;;;17.96;71.95;101353.31;5027350;28;20460;-67
2023/08/08 11:01:08;;;;;;;2.70;1.67;;;;;;;18.08;71.45;101335.53;5029920;28;20030;-67
2023/08/08 11:03:36;;;;;;;5.55;1.88;;;;;;;18.27;70.57;101355.38;5041451;28;20064;-68
2023/08/08 11:06:03;;;;;;;3.17;1.60;;;;;;;18.43;71.49;101354.09;5029173;28;20052;-67
2023/08/08 11:08:30;;;;;;;4.90;1.95;;;;;;;18.50;71.14;101347.69;5040961;28;20056;-68